Minden, Iowa
Current Conditions -  °F | °C
As of 9:55 AM on Thursday 23 Oct 2014 (Local Time) from KHNR Reporting Station
Haze Haze  
Wind Chill: 61°   Ceiling: 1900
Heat Index: 61°   Visibility: 3mi
Dew Point: 61°   Wind: 8mph
Humidity: 100%   Direction: 330°NNW
Pressure: 30.09"   Gusts: NA
Location:  41.47°N, 95.54°W
Report Text: KHNR 231455Z AUTO 33007KT 3SM BR FEW008 SCT011 OVC019 16/16 A3009 RMK AO2
Loading
Personal Weather Stations






























Interactive Weather Map
Tropical Storm Tracking
New forecast layout! Learn more

10-Day Weather Forecast

Advertisements
Track Severe Weather on mobile